Time;durP1;ratioP1;P1;durP2;ratioP2;P2;SDS_P1;SDS_P2;PMS_P1;PMS_P2;Temp;Humidity;BMP_temperature;BMP_pressure;BME280_temperature;BME280_humidity;BME280_pressure;Samples;Min_cycle;Max_cycle;Signal;HPM_P1;HPM_P2
2022/07/11 00:03:58;;;;;;;1.60;1.50;;;15.40;99.90;;;;;;5823563;24;20015;-90
2022/07/11 00:07:09;;;;;;;1.65;1.40;;;15.70;99.90;;;;;;5879830;24;20073;-89
2022/07/11 00:10:21;;;;;;;1.80;1.30;;;15.80;99.90;;;;;;5895073;24;20539;-91
2022/07/11 00:13:50;;;;;;;3.05;1.55;;;15.50;99.90;;;;;;5925668;23;20015;-91
2022/07/11 00:17:06;;;;;;;2.50;1.48;;;15.00;99.90;;;;;;6024154;23;20023;-89
2022/07/11 00:20:15;;;;;;;2.88;1.80;;;15.00;99.90;;;;;;6045493;23;20030;-90
2022/07/11 00:23:13;;;;;;;4.15;2.00;;;15.80;99.90;;;;;;5992300;23;20027;-87
2022/07/11 00:30:07;;;;;;;4.28;2.20;;;15.70;99.90;;;;;;5948885;23;20058;-91
2022/07/11 00:32:58;;;;;;;6.25;2.60;;;15.80;99.90;;;;;;6036605;23;20014;-89
2022/07/11 00:35:34;;;;;;;3.50;2.05;;;15.70;99.90;;;;;;6146741;23;20016;-89
2022/07/11 00:38:59;;;;;;;5.07;2.70;;;15.80;99.90;;;;;;6145135;23;20021;-90
2022/07/11 00:45:34;;;;;;;4.07;2.30;;;15.70;99.90;;;;;;6089580;23;20052;-94
2022/07/11 00:49:06;;;;;;;3.72;2.35;;;15.80;99.90;;;;;;6009708;23;20784;-88
2022/07/11 00:52:43;;;;;;;3.60;2.28;;;15.80;99.90;;;;;;6016059;23;20016;-89
2022/07/11 01:14:10;;;;;;;;;;;;;;;;;;;;;
2022/07/11 01:35:40;;;;;;;;;;;;;;;;;;;;;
2022/07/11 01:38:06;;;;;;;3.13;2.35;;;16.10;99.90;;;;;;5825499;24;20051;-89
2022/07/11 01:41:08;;;;;;;;;;;;;;;;;;;;;
2022/07/11 01:43:40;;;;;;;3.88;2.42;;;16.20;99.90;;;;;;5993974;23;20496;-88
2022/07/11 01:46:49;;;;;;;;;;;;;;;;;;;;;
2022/07/11 01:52:28;;;;;;;3.72;2.67;;;16.00;99.90;;;;;;6044508;23;20027;-90
2022/07/11 01:55:37;;;;;;;;;;;;;;;;;;;;;
2022/07/11 02:02:00;;;;;;;3.47;2.70;;;15.90;99.90;;;;;;6172095;23;20127;-92
2022/07/11 02:05:31;;;;;;;4.03;2.53;;;15.90;99.90;;;;;;6139034;23;20087;-93
2022/07/11 02:12:19;;;;;;;3.20;2.78;;;15.50;99.90;;;;;;6177944;23;20021;-92
2022/07/11 02:16:16;;;;;;;;;;;;;;;;;;;;;
2022/07/11 02:19:00;;;;;;;7.03;3.10;;;16.00;99.90;;;;;;6042337;23;20098;-92
2022/07/11 02:21:56;;;;;;;4.00;3.20;;;16.10;99.90;;;;;;6185519;23;20063;-92
2022/07/11 02:24:51;;;;;;;5.43;3.05;;;16.30;99.90;;;;;;6195836;23;20451;-92
2022/07/11 02:27:26;;;;;;;5.63;2.75;;;16.30;99.90;;;;;;6205009;23;20031;-90
2022/07/11 02:30:12;;;;;;;2.65;2.28;;;16.30;99.90;;;;;;6204101;23;20023;-91
2022/07/11 02:33:10;;;;;;;4.25;2.50;;;16.00;99.90;;;;;;6202496;23;20020;-92
2022/07/11 02:36:07;;;;;;;4.85;2.42;;;16.40;99.90;;;;;;6156212;23;20018;-91
2022/07/11 02:39:16;;;;;;;3.03;1.95;;;16.20;99.90;;;;;;6225121;22;20023;-90
2022/07/11 02:42:23;;;;;;;4.05;2.22;;;16.30;99.90;;;;;;6206043;22;20019;-91
2022/07/11 02:53:44;;;;;;;2.85;2.08;;;15.80;99.90;;;;;;6038817;23;20042;-90
2022/07/11 02:56:27;;;;;;;2.13;1.83;;;16.50;99.90;;;;;;5994067;23;20397;-90
2022/07/11 02:59:43;;;;;;;2.58;2.10;;;16.50;99.90;;;;;;6039755;23;20054;-90
2022/07/11 03:02:24;;;;;;;;;;;;;;;;;;;;;
2022/07/11 03:05:17;;;;;;;2.90;1.83;;;16.40;99.90;;;;;;6081601;23;20018;-92
2022/07/11 03:07:49;;;;;;;2.42;1.80;;;16.30;99.90;;;;;;6169426;23;20016;-89
2022/07/11 03:10:30;;;;;;;2.88;2.10;;;16.30;99.90;;;;;;6165679;23;20023;-90
2022/07/11 03:15:48;;;;;;;2.15;1.70;;;16.60;99.90;;;;;;6190555;23;20020;-90
2022/07/11 03:18:23;;;;;;;2.60;1.80;;;16.60;99.90;;;;;;6139735;23;20080;-89
2022/07/11 03:20:58;;;;;;;4.40;1.83;;;16.60;99.90;;;;;;6137082;23;20009;-90
2022/07/11 03:23:24;;;;;;;2.17;1.45;;;17.10;99.90;;;;;;6192668;23;20020;-91
2022/07/11 03:25:50;;;;;;;2.15;1.70;;;16.70;99.90;;;;;;6193795;23;20016;-90
2022/07/11 03:28:22;;;;;;;1.88;1.63;;;16.40;99.90;;;;;;6172851;23;20026;-91
2022/07/11 03:30:51;;;;;;;2.40;1.70;;;16.50;99.90;;;;;;6193725;23;20016;-90
2022/07/11 03:33:18;;;;;;;1.90;1.70;;;16.70;99.90;;;;;;6169530;23;20016;-91
2022/07/11 03:35:47;;;;;;;2.78;1.60;;;16.50;99.90;;;;;;6194092;23;20020;-91
2022/07/11 03:38:21;;;;;;;2.55;1.77;;;16.80;99.90;;;;;;6195059;23;20020;-90
2022/07/11 03:40:47;;;;;;;3.00;1.50;;;16.50;99.90;;;;;;6170244;23;20020;-90
2022/07/11 03:43:15;;;;;;;2.78;1.40;;;16.30;99.90;;;;;;6166559;23;20024;-89
2022/07/11 03:45:41;;;;;;;4.78;1.63;;;16.50;99.90;;;;;;6168499;23;20017;-89
2022/07/11 03:48:23;;;;;;;2.30;1.42;;;16.50;99.90;;;;;;6164351;23;20016;-89
2022/07/11 03:50:49;;;;;;;3.00;1.20;;;16.90;99.90;;;;;;6166051;23;20342;-90
2022/07/11 03:53:18;;;;;;;3.58;1.35;;;16.50;99.90;;;;;;6167692;23;20017;-90
2022/07/11 03:55:44;;;;;;;3.25;1.33;;;16.90;99.90;;;;;;6164884;23;20016;-90
2022/07/11 03:58:10;;;;;;;3.17;1.02;;;16.60;99.90;;;;;;6190686;23;20019;-91
2022/07/11 04:00:36;;;;;;;4.22;1.10;;;17.00;99.90;;;;;;6167932;23;20016;-89
2022/07/11 04:03:02;;;;;;;1.75;1.38;;;17.00;99.90;;;;;;6165762;23;20043;-89
2022/07/11 04:05:28;;;;;;;1.92;1.38;;;17.10;99.90;;;;;;6164946;23;20016;-88
2022/07/11 04:07:54;;;;;;;2.58;1.02;;;16.90;99.90;;;;;;6164617;23;20013;-89
2022/07/11 04:10:20;;;;;;;2.13;1.20;;;17.00;99.90;;;;;;6167883;23;20017;-89
2022/07/11 04:12:45;;;;;;;1.70;1.20;;;17.00;99.90;;;;;;6167150;23;20078;-92
2022/07/11 04:15:11;;;;;;;2.53;1.13;;;17.10;99.90;;;;;;6164408;23;20021;-88
2022/07/11 04:17:38;;;;;;;3.53;1.10;;;16.90;99.90;;;;;;6189828;23;20009;-89
2022/07/11 04:20:05;;;;;;;2.53;1.13;;;16.60;99.90;;;;;;6165100;23;20013;-92
2022/07/11 04:22:31;;;;;;;3.83;1.50;;;16.90;99.90;;;;;;6165885;23;20024;-90
2022/07/11 04:24:57;;;;;;;1.13;0.98;;;17.10;99.90;;;;;;6166328;23;20072;-90
2022/07/11 04:27:25;;;;;;;3.38;1.00;;;16.70;99.90;;;;;;6167272;23;20021;-90
2022/07/11 04:29:51;;;;;;;1.52;0.77;;;16.80;99.90;;;;;;6191362;23;20051;-89
2022/07/11 04:32:17;;;;;;;1.10;0.95;;;17.10;99.90;;;;;;6166694;23;20039;-90
2022/07/11 04:34:42;;;;;;;1.55;0.90;;;17.10;99.90;;;;;;6166256;23;20023;-89
2022/07/11 04:37:08;;;;;;;1.40;0.68;;;16.90;99.90;;;;;;6165944;23;20064;-88
2022/07/11 04:39:34;;;;;;;1.40;0.85;;;17.10;99.90;;;;;;6175226;23;20012;-88
2022/07/11 04:42:02;;;;;;;3.45;0.80;;;17.10;99.90;;;;;;6193607;23;20016;-91
2022/07/11 04:44:28;;;;;;;2.08;1.05;;;17.20;99.90;;;;;;6171084;23;20384;-89
2022/07/11 04:46:55;;;;;;;1.60;0.90;;;17.20;99.90;;;;;;6156825;23;20012;-88
2022/07/11 04:49:21;;;;;;;1.38;0.75;;;17.40;99.90;;;;;;6227199;23;20095;-87
2022/07/11 04:51:47;;;;;;;1.67;0.80;;;17.40;99.90;;;;;;6198633;23;20823;-90
2022/07/11 04:54:16;;;;;;;2.47;0.80;;;17.40;99.90;;;;;;6195232;23;20101;-93
2022/07/11 04:56:42;;;;;;;2.00;0.95;;;17.20;99.90;;;;;;6218440;23;20082;-89
2022/07/11 04:59:11;;;;;;;2.55;0.77;;;17.40;99.90;;;;;;6196394;23;20070;-90
2022/07/11 05:01:37;;;;;;;2.28;0.88;;;17.20;99.90;;;;;;6218460;23;20020;-90
2022/07/11 05:04:05;;;;;;;2.97;1.10;;;17.30;99.90;;;;;;6218425;23;20016;-89
2022/07/11 05:06:32;;;;;;;3.10;1.17;;;17.40;99.90;;;;;;6219367;23;20008;-88
2022/07/11 05:08:58;;;;;;;1.35;0.75;;;17.60;99.90;;;;;;6218678;23;20008;-90
2022/07/11 05:11:23;;;;;;;2.63;0.98;;;17.50;99.90;;;;;;6219752;23;20008;-89
2022/07/11 05:13:49;;;;;;;4.18;0.90;;;17.30;99.90;;;;;;6245385;23;20020;-90
2022/07/11 05:16:15;;;;;;;2.78;0.80;;;18.00;99.90;;;;;;6219622;23;20070;-90
2022/07/11 05:18:41;;;;;;;1.20;0.82;;;17.30;99.90;;;;;;6219149;23;20016;-90
2022/07/11 05:21:07;;;;;;;2.05;1.00;;;17.60;99.90;;;;;;6217817;23;20016;-90
2022/07/11 05:23:33;;;;;;;2.67;0.90;;;17.60;99.90;;;;;;6215597;23;20085;-91
2022/07/11 05:25:58;;;;;;;2.97;0.90;;;17.80;99.90;;;;;;6242278;23;20619;-89
2022/07/11 05:28:24;;;;;;;1.13;0.70;;;17.90;99.90;;;;;;6217260;23;20384;-90
2022/07/11 05:30:50;;;;;;;2.45;0.90;;;17.50;99.90;;;;;;6217015;23;20012;-88
2022/07/11 05:33:16;;;;;;;1.13;0.90;;;17.80;99.90;;;;;;6223807;23;20039;-90
2022/07/11 05:35:45;;;;;;;1.45;0.80;;;17.50;99.90;;;;;;6256795;23;20038;-89
2022/07/11 05:38:10;;;;;;;4.82;0.90;;;17.70;99.90;;;;;;6260056;23;20019;-90
2022/07/11 05:40:36;;;;;;;1.45;0.80;;;17.40;99.90;;;;;;6258785;23;20016;-89
2022/07/11 05:43:02;;;;;;;1.10;0.77;;;17.70;99.90;;;;;;6226108;23;20016;-91
2022/07/11 05:45:28;;;;;;;2.67;0.60;;;17.50;99.90;;;;;;6225898;23;20020;-89
2022/07/11 05:47:54;;;;;;;2.10;0.70;;;16.50;99.90;;;;;;6235297;23;20016;-89
2022/07/11 05:50:26;;;;;;;1.17;0.63;;;17.90;99.90;;;;;;6189798;22;20612;-90
2022/07/11 05:52:52;;;;;;;2.20;0.63;;;17.90;99.90;;;;;;6240687;23;20076;-90
2022/07/11 05:55:22;;;;;;;0.93;0.50;;;17.40;99.90;;;;;;6228725;23;20016;-91
2022/07/11 05:57:48;;;;;;;0.75;0.60;;;17.60;99.90;;;;;;6224570;23;20008;-91
2022/07/11 06:00:16;;;;;;;3.90;0.50;;;17.70;99.90;;;;;;6225552;23;20097;-91
2022/07/11 06:02:49;;;;;;;1.58;0.50;;;17.90;99.90;;;;;;6223081;23;20016;-92
2022/07/11 06:05:15;;;;;;;2.35;0.60;;;17.50;99.90;;;;;;6247548;23;20020;-91
2022/07/11 06:10:25;;;;;;;1.67;0.73;;;17.50;99.90;;;;;;6249690;23;20124;-90
2022/07/11 06:12:51;;;;;;;1.25;0.60;;;17.60;99.90;;;;;;6216978;23;20020;-89
2022/07/11 06:15:17;;;;;;;0.50;0.50;;;17.70;99.90;;;;;;6220402;23;20051;-91
2022/07/11 06:17:45;;;;;;;0.65;0.50;;;17.50;99.90;;;;;;6223192;23;20012;-91
2022/07/11 06:20:11;;;;;;;1.25;0.60;;;17.90;99.90;;;;;;6216642;23;20432;-91
2022/07/11 06:22:42;;;;;;;0.70;0.50;;;17.80;99.90;;;;;;6243213;23;20012;-92
2022/07/11 06:25:11;;;;;;;0.55;0.50;;;17.60;99.90;;;;;;6247547;23;20016;-93
2022/07/11 06:27:42;;;;;;;0.82;0.40;;;17.60;99.90;;;;;;6245832;23;20023;-90
2022/07/11 06:30:13;;;;;;;1.40;0.50;;;17.50;99.90;;;;;;6225340;23;20109;-90
2022/07/11 06:32:42;;;;;;;0.85;0.70;;;18.00;99.90;;;;;;6198849;23;20039;-91
2022/07/11 06:35:16;;;;;;;0.88;0.60;;;18.10;99.90;;;;;;6224175;23;20024;-89
2022/07/11 06:37:50;;;;;;;2.43;0.60;;;17.70;99.90;;;;;;6223205;23;20050;-90
2022/07/11 06:40:17;;;;;;;;;;;17.40;99.90;;;;;;6222923;23;20255;-88
2022/07/11 06:42:55;;;;;;;1.33;0.73;;;18.20;99.90;;;;;;6223347;23;19916;-93
2022/07/11 06:45:21;;;;;;;0.60;0.50;;;17.70;99.90;;;;;;6197897;23;20065;-89
2022/07/11 06:47:47;;;;;;;0.60;0.50;;;17.80;99.90;;;;;;6199613;23;20522;-90
2022/07/11 06:50:16;;;;;;;1.65;0.70;;;18.00;99.90;;;;;;6223980;23;20023;-90
2022/07/11 06:52:42;;;;;;;1.10;0.50;;;17.80;99.90;;;;;;6224143;23;20059;-91
2022/07/11 06:55:08;;;;;;;1.63;0.50;;;18.10;99.90;;;;;;6221498;23;20016;-89
2022/07/11 06:57:34;;;;;;;2.53;0.55;;;18.40;99.90;;;;;;6195781;23;20019;-91
2022/07/11 07:00:00;;;;;;;0.85;0.50;;;18.00;99.90;;;;;;6229153;23;20037;-87
2022/07/11 07:02:30;;;;;;;0.57;0.38;;;18.20;99.90;;;;;;6227926;23;20012;-89
2022/07/11 07:04:59;;;;;;;1.27;0.60;;;18.60;99.90;;;;;;6251430;23;20023;-89
2022/07/11 07:07:26;;;;;;;1.88;0.80;;;18.60;99.90;;;;;;6223297;23;20344;-90
2022/07/11 07:09:55;;;;;;;0.73;0.70;;;18.10;99.90;;;;;;6221929;23;20023;-91
2022/07/11 07:12:21;;;;;;;0.60;0.50;;;18.10;99.90;;;;;;6221098;23;20028;-93
2022/07/11 07:14:50;;;;;;;1.73;0.70;;;18.00;99.90;;;;;;6222021;23;20062;-92
2022/07/11 07:17:22;;;;;;;0.60;0.60;;;18.30;99.90;;;;;;6198287;23;20012;-92
2022/07/11 07:19:54;;;;;;;0.80;0.60;;;17.90;99.90;;;;;;6222530;23;20070;-92
2022/07/11 07:22:20;;;;;;;1.15;0.63;;;17.90;99.90;;;;;;6222487;23;20054;-92
2022/07/11 07:24:46;;;;;;;1.55;0.70;;;18.00;99.90;;;;;;6223027;23;20016;-90
2022/07/11 07:27:14;;;;;;;2.60;0.75;;;17.70;99.90;;;;;;6222592;23;20016;-90
2022/07/11 07:29:43;;;;;;;1.67;0.80;;;17.90;99.90;;;;;;6224517;23;20445;-91
2022/07/11 07:32:09;;;;;;;3.55;0.80;;;17.90;99.90;;;;;;6222248;23;20023;-90
2022/07/11 07:34:35;;;;;;;1.08;0.70;;;17.60;99.90;;;;;;6246685;23;20046;-90
2022/07/11 07:37:00;;;;;;;1.08;0.60;;;17.60;99.90;;;;;;6220898;23;20446;-90
2022/07/11 07:39:26;;;;;;;2.55;0.82;;;17.90;99.90;;;;;;6221627;23;20455;-92
2022/07/11 07:41:52;;;;;;;0.80;0.68;;;17.50;99.90;;;;;;6221901;23;20091;-92
2022/07/11 07:44:19;;;;;;;2.17;0.85;;;17.80;99.90;;;;;;6221240;23;20087;-88
2022/07/11 07:46:48;;;;;;;2.53;0.70;;;17.70;99.90;;;;;;6222094;23;20085;-91
2022/07/11 07:49:14;;;;;;;1.45;0.50;;;17.10;99.90;;;;;;6198826;23;20019;-90
2022/07/11 07:51:40;;;;;;;0.75;0.50;;;17.80;99.90;;;;;;6223004;23;20008;-90
2022/07/11 07:54:06;;;;;;;2.33;0.80;;;17.80;99.90;;;;;;6221532;23;20016;-92
2022/07/11 07:56:31;;;;;;;0.80;0.60;;;17.70;99.90;;;;;;6221454;23;20043;-90
2022/07/11 07:58:57;;;;;;;1.55;0.60;;;17.80;99.90;;;;;;6197160;23;20433;-92
2022/07/11 08:01:35;;;;;;;0.80;0.50;;;17.80;99.90;;;;;;6198476;23;20050;-91
2022/07/11 08:04:16;;;;;;;;;;;;;;;;;;;;;
2022/07/11 08:06:42;;;;;;;1.10;0.50;;;17.70;99.90;;;;;;6250368;23;20075;-89
2022/07/11 08:09:12;;;;;;;1.55;0.40;;;17.80;99.90;;;;;;6223273;23;20016;-93
2022/07/11 08:11:38;;;;;;;0.55;0.50;;;17.60;99.90;;;;;;6223847;23;20359;-90
2022/07/11 08:14:04;;;;;;;1.30;0.40;;;17.50;99.90;;;;;;6248891;23;20016;-89
2022/07/11 08:16:34;;;;;;;0.82;0.40;;;17.70;99.90;;;;;;6225834;23;20023;-89
2022/07/11 08:19:05;;;;;;;0.73;0.50;;;17.80;99.90;;;;;;6251748;23;20016;-89
2022/07/11 08:21:34;;;;;;;0.65;0.30;;;17.90;99.90;;;;;;6250358;23;20020;-90
2022/07/11 08:24:01;;;;;;;0.73;0.45;;;18.00;99.90;;;;;;6223991;23;20008;-90
2022/07/11 08:26:27;;;;;;;1.13;0.40;;;18.30;99.90;;;;;;6251811;23;20016;-89
2022/07/11 08:28:53;;;;;;;0.70;0.38;;;18.60;99.90;;;;;;6225232;23;20016;-90
2022/07/11 08:31:19;;;;;;;0.40;0.40;;;18.60;99.90;;;;;;6201477;23;20023;-91
2022/07/11 08:33:46;;;;;;;0.75;0.52;;;18.50;99.90;;;;;;6225182;23;20020;-91
2022/07/11 08:36:12;;;;;;;1.15;0.47;;;18.30;99.90;;;;;;6226724;23;20016;-89
2022/07/11 08:38:39;;;;;;;1.05;0.40;;;18.20;99.90;;;;;;6229170;23;20016;-89
2022/07/11 08:41:05;;;;;;;2.65;0.40;;;18.20;99.90;;;;;;6254937;23;20016;-90
2022/07/11 08:43:32;;;;;;;1.40;0.43;;;18.30;99.90;;;;;;6227188;23;20016;-92
2022/07/11 08:46:01;;;;;;;0.40;0.40;;;18.00;99.90;;;;;;6225519;23;20021;-89
2022/07/11 08:48:28;;;;;;;1.60;0.50;;;17.70;99.90;;;;;;6199695;23;20016;-91
2022/07/11 08:51:08;;;;;;;0.80;0.50;;;17.70;99.90;;;;;;6251554;23;20016;-92
2022/07/11 08:53:40;;;;;;;1.67;0.60;;;18.20;99.90;;;;;;6225965;23;20479;-92
2022/07/11 08:56:15;;;;;;;0.50;0.40;;;17.80;99.90;;;;;;6225183;23;20449;-91
2022/07/11 08:58:45;;;;;;;1.15;0.50;;;17.80;99.90;;;;;;6250108;23;20333;-91
2022/07/11 09:01:14;;;;;;;0.60;0.35;;;17.90;99.90;;;;;;6225640;23;20044;-90
2022/07/11 09:03:41;;;;;;;1.08;0.43;;;18.00;99.90;;;;;;6250230;23;20067;-89
2022/07/11 09:06:16;;;;;;;0.77;0.38;;;18.10;99.90;;;;;;6249224;23;20027;-92
2022/07/11 09:08:42;;;;;;;0.57;0.40;;;18.40;99.90;;;;;;6176212;23;20095;-93
2022/07/11 09:11:09;;;;;;;1.55;0.40;;;18.60;99.90;;;;;;6202510;23;20016;-88
2022/07/11 09:13:36;;;;;;;0.98;0.50;;;18.70;99.90;;;;;;6232629;23;20142;-91
2022/07/11 09:16:11;;;;;;;0.63;0.40;;;17.70;99.90;;;;;;6225923;23;20027;-91
2022/07/11 09:18:40;;;;;;;;;;;18.20;99.90;;;;;;6249163;23;20411;-90
2022/07/11 09:26:51;;;;;;;0.20;0.20;;;18.20;99.90;;;;;;6250464;23;20539;-93
2022/07/11 09:29:25;;;;;;;0.60;0.30;;;18.60;99.90;;;;;;6250485;23;20027;-90
2022/07/11 09:31:54;;;;;;;0.27;0.20;;;18.40;99.90;;;;;;6252960;23;20069;-90
2022/07/11 09:34:23;;;;;;;0.40;0.40;;;18.40;99.90;;;;;;6248360;23;20023;-91
2022/07/11 09:36:56;;;;;;;0.82;0.40;;;18.20;99.90;;;;;;6250138;23;20047;-90
2022/07/11 09:39:31;;;;;;;0.63;0.40;;;18.10;99.90;;;;;;6226565;23;20051;-93
2022/07/11 09:42:10;;;;;;;1.15;0.60;;;17.90;99.90;;;;;;6225027;23;20042;-93
2022/07/11 09:44:50;;;;;;;2.63;0.60;;;17.80;99.90;;;;;;6250330;23;20048;-93
2022/07/11 09:47:16;;;;;;;0.50;0.50;;;18.00;99.90;;;;;;6225829;23;20072;-89
2022/07/11 09:49:48;;;;;;;0.63;0.50;;;18.00;99.90;;;;;;6223596;23;20352;-92
2022/07/11 09:52:17;;;;;;;0.95;0.40;;;18.00;99.90;;;;;;6247773;23;20023;-90
2022/07/11 09:55:00;;;;;;;0.32;0.32;;;18.20;99.90;;;;;;6223137;23;20016;-91
2022/07/11 09:57:33;;;;;;;1.85;0.45;;;18.30;99.90;;;;;;6224389;23;20008;-91
2022/07/11 10:00:03;;;;;;;0.30;0.30;;;18.20;99.90;;;;;;6222563;23;20016;-90
2022/07/11 10:02:29;;;;;;;0.52;0.50;;;18.20;99.90;;;;;;6247958;23;20064;-89
2022/07/11 10:04:57;;;;;;;0.40;0.40;;;18.30;99.90;;;;;;6222532;23;20020;-88
2022/07/11 10:07:27;;;;;;;0.98;0.40;;;18.40;99.90;;;;;;6246762;23;20019;-90
2022/07/11 10:09:55;;;;;;;0.45;0.45;;;18.50;99.90;;;;;;6246182;23;20122;-90
2022/07/11 10:12:22;;;;;;;1.05;0.60;;;18.40;99.90;;;;;;6246652;23;20026;-89
2022/07/11 10:14:49;;;;;;;2.20;0.60;;;18.50;99.90;;;;;;6248490;23;20491;-91
2022/07/11 10:17:39;;;;;;;0.60;0.40;;;18.50;99.90;;;;;;6223729;23;20012;-90
2022/07/11 10:20:20;;;;;;;0.40;0.40;;;18.20;99.90;;;;;;6251333;23;20047;-88
2022/07/11 10:22:53;;;;;;;0.82;0.40;;;18.20;99.90;;;;;;6254444;23;20012;-90
2022/07/11 10:25:50;;;;;;;0.50;0.50;;;18.50;99.90;;;;;;6254323;23;20016;-91
2022/07/11 10:28:34;;;;;;;1.67;0.60;;;18.50;99.90;;;;;;6253807;23;20150;-91
2022/07/11 10:31:03;;;;;;;0.63;0.45;;;18.30;99.90;;;;;;6229472;23;20066;-90
2022/07/11 10:33:31;;;;;;;0.77;0.40;;;18.40;99.90;;;;;;6253859;23;20012;-90
2022/07/11 10:36:00;;;;;;;0.40;0.35;;;18.50;99.90;;;;;;6203869;23;20068;-89
2022/07/11 10:38:28;;;;;;;0.75;0.50;;;18.70;99.90;;;;;;6257705;23;20043;-88
2022/07/11 10:40:58;;;;;;;0.68;0.40;;;18.60;99.90;;;;;;6231257;23;20445;-93
2022/07/11 10:43:31;;;;;;;0.80;0.30;;;18.50;99.90;;;;;;6249844;23;20019;-91
2022/07/11 10:46:11;;;;;;;0.80;0.40;;;18.50;99.90;;;;;;6226551;23;20016;-90
2022/07/11 10:48:57;;;;;;;1.42;0.73;;;18.30;99.90;;;;;;6263084;23;20016;-88
2022/07/11 10:51:52;;;;;;;0.60;0.50;;;18.40;99.90;;;;;;6212712;23;20016;-90
2022/07/11 10:54:30;;;;;;;0.70;0.47;;;18.40;99.90;;;;;;6255036;23;20016;-91
2022/07/11 10:57:02;;;;;;;0.60;0.52;;;18.40;99.90;;;;;;6227403;23;20087;-93
2022/07/11 10:59:30;;;;;;;0.95;0.50;;;18.50;99.90;;;;;;6226178;23;20019;-91
2022/07/11 11:02:51;;;;;;;0.60;0.60;;;18.80;99.90;;;;;;6224099;23;20008;-92
2022/07/11 11:05:52;;;;;;;1.17;0.77;;;18.60;99.90;;;;;;6224465;23;20022;-92
2022/07/11 11:08:45;;;;;;;0.90;0.80;;;18.70;99.90;;;;;;6226932;23;20091;-89
2022/07/11 11:11:23;;;;;;;1.35;0.70;;;18.50;99.90;;;;;;6228855;23;20016;-89
2022/07/11 11:14:29;;;;;;;1.10;0.80;;;18.50;99.90;;;;;;6214421;23;20016;-89
2022/07/11 11:17:18;;;;;;;1.55;0.90;;;18.60;99.90;;;;;;6226927;23;20035;-89
2022/07/11 11:19:53;;;;;;;1.10;0.90;;;18.80;99.90;;;;;;6171586;23;20388;-90
2022/07/11 11:22:21;;;;;;;1.02;0.73;;;18.90;99.90;;;;;;6250281;23;20576;-91
2022/07/11 11:24:52;;;;;;;1.10;0.68;;;19.00;99.90;;;;;;6256667;23;20007;-88
2022/07/11 11:27:27;;;;;;;2.22;0.50;;;19.00;99.90;;;;;;6257133;23;20019;-91
2022/07/11 11:30:20;;;;;;;0.50;0.40;;;18.90;99.90;;;;;;6254862;23;20021;-90
2022/07/11 11:32:48;;;;;;;1.05;0.47;;;19.00;99.90;;;;;;6203733;23;20020;-91
2022/07/11 11:35:17;;;;;;;0.60;0.50;;;18.90;99.90;;;;;;6199863;23;20105;-90
2022/07/11 11:37:55;;;;;;;0.50;0.50;;;18.70;99.90;;;;;;6251166;23;20062;-91
2022/07/11 11:40:27;;;;;;;0.85;0.60;;;18.50;99.90;;;;;;6249483;23;20027;-90
2022/07/11 11:42:56;;;;;;;0.70;0.50;;;18.70;99.90;;;;;;6223494;23;20017;-93
2022/07/11 11:45:27;;;;;;;0.93;0.70;;;18.60;99.90;;;;;;6225752;23;20020;-91
2022/07/11 11:51:29;;;;;;;;;;;;;;;;;;;;;
2022/07/11 11:57:46;;;;;;;1.98;0.60;;;18.00;99.90;;;;;;6157599;23;20013;-90
2022/07/11 12:00:46;;;;;;;1.30;0.70;;;18.90;99.90;;;;;;6136270;23;20683;-94
2022/07/11 12:07:04;;;;;;;0.75;0.70;;;19.00;99.90;;;;;;6134032;23;20172;-91
2022/07/11 12:10:06;;;;;;;0.52;0.50;;;19.20;99.90;;;;;;6135972;23;20013;-91
2022/07/11 12:12:53;;;;;;;0.50;0.50;;;19.10;99.90;;;;;;6075090;23;20014;-90
2022/07/11 12:16:39;;;;;;;0.60;0.60;;;19.10;99.90;;;;;;6115409;23;20020;-90
2022/07/11 12:26:13;;;;;;;0.95;0.70;;;19.10;99.90;;;;;;6186975;23;20024;-91
2022/07/11 12:36:25;;;;;;;2.03;0.70;;;18.20;99.90;;;;;;6036613;23;20094;-92
2022/07/11 12:39:50;;;;;;;;;;;;;;;;;;;;;
2022/07/11 12:57:47;;;;;;;0.82;0.65;;;19.00;99.90;;;;;;5983219;24;20162;-92
2022/07/11 13:00:20;;;;;;;1.27;0.43;;;18.70;99.90;;;;;;6027797;23;20010;-88
2022/07/11 13:03:15;;;;;;;1.23;0.60;;;18.90;99.90;;;;;;6050780;23;20097;-91
2022/07/11 13:05:56;;;;;;;0.93;0.50;;;18.40;99.90;;;;;;6084078;23;20036;-92
2022/07/11 13:08:44;;;;;;;0.50;0.50;;;19.20;99.90;;;;;;6108945;23;20048;-91
2022/07/11 13:11:24;;;;;;;0.45;0.45;;;18.60;99.90;;;;;;6107229;23;20024;-90
2022/07/11 13:17:52;;;;;;;0.80;0.60;;;19.20;99.90;;;;;;6192777;23;20029;-92
2022/07/11 13:20:37;;;;;;;0.90;0.77;;;18.90;99.90;;;;;;6171074;23;20113;-90
2022/07/11 13:23:47;;;;;;;0.95;0.88;;;19.50;99.90;;;;;;6174884;23;20042;-92
2022/07/11 13:27:24;;;;;;;0.50;0.50;;;19.50;99.90;;;;;;6171333;23;20013;-89
2022/07/11 13:30:27;;;;;;;;;;;;;;;;;;;;;
2022/07/11 13:37:49;;;;;;;2.67;1.30;;;19.30;99.90;;;;;;6132646;23;20040;-92
2022/07/11 13:41:02;;;;;;;1.10;0.70;;;19.00;99.90;;;;;;6145573;23;20085;-88
2022/07/11 13:47:31;;;;;;;0.80;0.50;;;19.00;99.90;;;;;;6161198;23;20024;-91
2022/07/11 13:50:06;;;;;;;1.15;0.50;;;18.50;99.90;;;;;;6113185;23;20360;-88
2022/07/11 13:52:51;;;;;;;;;;;;;;;;;;;;;
2022/07/11 13:56:46;;;;;;;1.15;0.68;;;19.10;99.90;;;;;;6134249;23;20014;-94
2022/07/11 13:59:39;;;;;;;0.70;0.60;;;18.90;99.90;;;;;;6108399;23;20021;-92
2022/07/11 14:06:36;;;;;;;0.88;0.73;;;18.90;99.90;;;;;;6107843;23;20026;-91
2022/07/11 14:13:38;;;;;;;;;;;;;;;;;;;;;
2022/07/11 14:17:20;;;;;;;1.40;0.90;;;19.00;99.90;;;;;;6104191;23;20048;-91
2022/07/11 14:24:01;;;;;;;1.38;0.85;;;19.10;99.90;;;;;;5990983;24;20535;-89
2022/07/11 14:38:03;;;;;;;1.80;0.70;;;19.30;99.90;;;;;;5985858;23;20351;-91
2022/07/11 14:41:51;;;;;;;0.70;0.70;;;19.30;99.90;;;;;;6082536;23;20021;-93
2022/07/11 14:45:06;;;;;;;0.65;0.57;;;19.00;99.90;;;;;;5969278;23;20018;-91
2022/07/11 14:47:47;;;;;;;0.90;0.70;;;19.10;99.90;;;;;;6054032;23;20029;-92
2022/07/11 14:50:54;;;;;;;0.70;0.65;;;19.10;99.90;;;;;;6079694;23;20133;-90
2022/07/11 14:53:25;;;;;;;3.10;1.33;;;19.40;99.90;;;;;;6201467;23;20088;-90
2022/07/11 15:01:28;;;;;;;;;;;;;;;;;;;;;
2022/07/11 15:16:18;;;;;;;;;;;;;;;;;;;;;
2022/07/11 15:26:56;;;;;;;2.15;1.50;;;19.50;99.90;;;;;;5898057;24;20017;-92
2022/07/11 15:29:29;;;;;;;1.52;1.15;;;19.00;99.90;;;;;;5854007;24;20013;-90
2022/07/11 15:42:30;;;;;;;2.08;1.65;;;19.00;99.90;;;;;;5852574;24;20034;-89
2022/07/11 15:45:32;;;;;;;1.70;1.60;;;18.90;99.90;;;;;;5855348;24;20038;-93
2022/07/11 15:48:28;;;;;;;1.77;1.52;;;18.90;99.90;;;;;;5886833;24;20017;-91
2022/07/11 15:54:18;;;;;;;2.05;1.30;;;18.80;99.90;;;;;;6003577;23;20017;-89
2022/07/11 16:04:26;;;;;;;1.60;1.50;;;19.40;99.90;;;;;;6134107;23;20071;-90
2022/07/11 16:07:20;;;;;;;1.00;0.90;;;19.00;99.90;;;;;;6156144;23;20017;-90
2022/07/11 16:10:04;;;;;;;1.50;1.30;;;18.60;99.90;;;;;;6094507;23;20010;-91
2022/07/11 16:13:14;;;;;;;2.05;1.27;;;19.00;99.90;;;;;;6026410;23;20075;-91
2022/07/11 16:15:52;;;;;;;2.35;1.30;;;18.90;99.90;;;;;;6034992;23;20026;-91
2022/07/11 16:18:28;;;;;;;1.00;0.90;;;18.70;99.90;;;;;;6109621;23;20040;-90
2022/07/11 16:22:00;;;;;;;;;;;;;;;;;;;;;
2022/07/11 16:25:35;;;;;;;;;;;;;;;;;;;;;
2022/07/11 16:32:20;;;;;;;;;;;;;;;;;;;;;
2022/07/11 16:35:11;;;;;;;1.80;1.20;;;18.70;99.90;;;;;;6044880;23;20026;-93
2022/07/11 16:45:53;;;;;;;;;;;;;;;;;;;;;
2022/07/11 17:00:19;;;;;;;1.40;1.30;;;17.80;99.90;;;;;;5905163;24;20018;-92
2022/07/11 17:03:16;;;;;;;;;;;;;;;;;;;;;
2022/07/11 17:06:09;;;;;;;1.75;1.20;;;18.20;99.90;;;;;;6071689;23;20018;-91
2022/07/11 17:12:38;;;;;;;1.30;1.20;;;18.10;99.90;;;;;;6058053;23;20022;-92
2022/07/11 17:19:00;;;;;;;2.28;1.38;;;18.20;99.90;;;;;;6077614;23;20046;-90
2022/07/11 17:21:40;;;;;;;2.17;1.20;;;17.90;99.90;;;;;;6052333;23;20089;-92
2022/07/11 17:24:06;;;;;;;2.03;1.80;;;18.00;99.90;;;;;;6050697;23;20015;-89
2022/07/11 17:26:32;;;;;;;2.33;1.48;;;18.10;99.90;;;;;;6028276;23;20022;-90
2022/07/11 17:28:58;;;;;;;2.17;1.60;;;18.10;99.90;;;;;;6106386;23;20035;-88
2022/07/11 17:31:30;;;;;;;1.80;1.30;;;18.00;99.90;;;;;;6169018;23;20016;-90
2022/07/11 17:38:10;;;;;;;1.20;0.90;;;18.10;99.90;;;;;;6033974;23;20065;-92
2022/07/11 17:40:45;;;;;;;;;;;17.90;99.90;;;;;;6053123;23;20115;-88
2022/07/11 17:43:15;;;;;;;1.13;1.00;;;18.00;99.90;;;;;;6172192;23;19916;-91
2022/07/11 17:45:43;;;;;;;1.40;1.25;;;17.90;99.90;;;;;;6170960;23;20465;-90
2022/07/11 17:48:13;;;;;;;1.40;1.25;;;17.90;99.90;;;;;;6173652;23;20338;-89
2022/07/11 17:50:44;;;;;;;1.65;1.23;;;17.80;99.90;;;;;;6173474;23;20047;-89
2022/07/11 17:53:41;;;;;;;1.23;1.13;;;17.90;99.90;;;;;;6172598;23;20023;-89
2022/07/11 17:56:17;;;;;;;1.27;1.13;;;17.80;99.90;;;;;;6177407;23;20043;-89
2022/07/11 17:58:47;;;;;;;1.17;1.00;;;17.70;99.90;;;;;;6173486;23;20016;-88
2022/07/11 18:01:29;;;;;;;2.13;1.13;;;17.80;99.90;;;;;;6176973;23;20028;-89
2022/07/11 18:04:44;;;;;;;1.65;0.90;;;17.70;99.90;;;;;;6173277;23;20043;-93
2022/07/11 18:07:52;;;;;;;1.70;1.10;;;17.50;99.90;;;;;;6171490;23;20023;-91